createdAt,value
2017-01-10T00:00:04.466Z,72706
2017-01-10T00:00:13.132Z,72706
2017-01-10T00:00:21.811Z,72707
2017-01-10T00:00:30.472Z,72704
2017-01-10T00:00:39.139Z,72705
2017-01-10T00:00:47.813Z,72707
2017-01-10T00:00:56.488Z,72709
2017-01-10T00:01:05.160Z,72709
2017-01-10T00:01:13.833Z,72707
2017-01-10T00:01:22.501Z,72706
2017-01-10T00:01:31.169Z,72706
2017-01-10T00:01:39.831Z,72710
2017-01-10T00:01:48.521Z,72707
2017-01-10T00:01:57.207Z,72710
2017-01-10T00:02:05.886Z,72709
2017-01-10T00:02:14.563Z,72709
2017-01-10T00:02:23.233Z,72712
2017-01-10T00:02:31.901Z,72711
2017-01-10T00:02:40.578Z,72714
2017-01-10T00:02:49.260Z,72708
2017-01-10T00:02:57.944Z,72707
2017-01-10T00:03:06.616Z,72710
2017-01-10T00:03:15.298Z,72707
2017-01-10T00:03:23.965Z,72710
2017-01-10T00:03:32.651Z,72707
2017-01-10T00:03:41.315Z,72715
2017-01-10T00:03:49.961Z,72713
2017-01-10T00:03:58.646Z,72712
2017-01-10T00:04:07.343Z,72716
2017-01-10T00:04:16.028Z,72715
2017-01-10T00:04:24.688Z,72715
2017-01-10T00:04:33.349Z,72707
2017-01-10T00:04:41.988Z,72713
2017-01-10T00:04:50.667Z,72707
2017-01-10T00:04:59.336Z,72710
2017-01-10T00:05:08.375Z,72710
2017-01-10T00:05:17.047Z,72711
2017-01-10T00:05:25.712Z,72716
2017-01-10T00:05:34.395Z,72714
2017-01-10T00:05:43.060Z,72709
2017-01-10T00:05:51.727Z,72709
2017-01-10T00:06:00.394Z,72713
2017-01-10T00:06:09.094Z,72711
2017-01-10T00:06:17.770Z,72710
2017-01-10T00:06:26.443Z,72708
2017-01-10T00:06:35.109Z,72714
2017-01-10T00:06:43.768Z,72707
2017-01-10T00:06:52.446Z,72705
2017-01-10T00:07:01.130Z,72707
2017-01-10T00:07:09.789Z,72708
2017-01-10T00:07:18.471Z,72709
2017-01-10T00:07:27.164Z,72706
2017-01-10T00:07:35.840Z,72710
2017-01-10T00:07:44.518Z,72710
2017-01-10T00:07:53.196Z,72707
2017-01-10T00:08:01.853Z,72706
2017-01-10T00:08:10.519Z,72710
2017-01-10T00:08:19.203Z,72706
2017-01-10T00:08:27.907Z,72704
2017-01-10T00:08:36.577Z,72705
2017-01-10T00:08:45.243Z,72710
2017-01-10T00:08:53.920Z,72708
2017-01-10T00:09:02.598Z,72710
2017-01-10T00:09:11.285Z,72709
2017-01-10T00:09:19.941Z,72704
2017-01-10T00:09:28.614Z,72706
2017-01-10T00:09:37.280Z,72703
2017-01-10T00:09:45.961Z,72708
2017-01-10T00:09:54.638Z,72704
2017-01-10T00:10:03.338Z,72702
2017-01-10T00:10:12.026Z,72701
2017-01-10T00:10:20.705Z,72705
2017-01-10T00:10:29.377Z,72704
2017-01-10T00:10:38.046Z,72708
2017-01-10T00:10:46.730Z,72703
2017-01-10T00:10:55.405Z,72704
2017-01-10T00:11:04.069Z,72704
2017-01-10T00:11:12.748Z,72705
2017-01-10T00:11:21.432Z,72701
2017-01-10T00:11:30.100Z,72701
2017-01-10T00:11:38.786Z,72701
2017-01-10T00:11:47.474Z,72705
2017-01-10T00:11:56.154Z,72702
2017-01-10T00:12:04.853Z,72701
2017-01-10T00:12:13.515Z,72701
2017-01-10T00:12:22.187Z,72701
2017-01-10T00:12:30.876Z,72699
2017-01-10T00:12:39.561Z,72700
2017-01-10T00:12:48.241Z,72701
2017-01-10T00:12:56.926Z,72699
2017-01-10T00:13:05.600Z,72698
2017-01-10T00:13:14.271Z,72698
2017-01-10T00:13:23.929Z,72697
2017-01-10T00:13:31.604Z,72698
2017-01-10T00:13:40.295Z,72696
2017-01-10T00:13:48.945Z,72699
2017-01-10T00:13:57.604Z,72693
2017-01-10T00:14:06.280Z,72695
2017-01-10T00:14:14.950Z,72696
2017-01-10T00:14:23.614Z,72695
2017-01-10T00:14:32.289Z,72693
2017-01-10T00:14:40.902Z,72693
2017-01-10T00:14:49.577Z,72693
2017-01-10T00:14:58.243Z,72687
2017-01-10T00:15:06.896Z,72693
2017-01-10T00:15:15.571Z,72691
2017-01-10T00:15:24.243Z,72689
2017-01-10T00:15:32.919Z,72696
2017-01-10T00:15:41.584Z,72694
2017-01-10T00:15:50.256Z,72693
2017-01-10T00:15:58.921Z,72692
2017-01-10T00:16:07.603Z,72690
2017-01-10T00:16:16.256Z,72690
2017-01-10T00:16:24.906Z,72693
2017-01-10T00:16:33.591Z,72693
2017-01-10T00:16:42.258Z,72696
2017-01-10T00:16:50.927Z,72691
2017-01-10T00:16:59.609Z,72692
2017-01-10T00:17:08.249Z,72694
2017-01-10T00:17:16.923Z,72691
2017-01-10T00:17:25.597Z,72694
2017-01-10T00:17:34.243Z,72689
2017-01-10T00:17:42.905Z,72688
2017-01-10T00:17:51.564Z,72689
2017-01-10T00:18:00.258Z,72690
2017-01-10T00:18:08.979Z,72691
2017-01-10T00:18:17.648Z,72690
2017-01-10T00:18:26.334Z,72690
2017-01-10T00:18:35.000Z,72688
2017-01-10T00:18:43.671Z,72687
2017-01-10T00:18:52.330Z,72689
2017-01-10T00:19:01.004Z,72687
2017-01-10T00:19:09.665Z,72691
2017-01-10T00:19:19.079Z,72693
2017-01-10T00:19:27.734Z,72692
2017-01-10T00:19:36.406Z,72691
2017-01-10T00:19:45.087Z,72691
2017-01-10T00:19:53.777Z,72688
2017-01-10T00:20:02.442Z,72689
2017-01-10T00:20:11.082Z,72691
2017-01-10T00:20:19.748Z,72686
2017-01-10T00:20:28.404Z,72690
2017-01-10T00:20:37.098Z,72693
2017-01-10T00:20:45.771Z,72688
2017-01-10T00:20:54.454Z,72690
2017-01-10T00:21:03.114Z,72690
2017-01-10T00:21:11.786Z,72686
2017-01-10T00:21:20.445Z,72689
2017-01-10T00:21:29.109Z,72690
2017-01-10T00:21:37.804Z,72692
2017-01-10T00:21:46.504Z,72690
2017-01-10T00:21:55.173Z,72685
2017-01-10T00:22:03.856Z,72689
2017-01-10T00:22:12.527Z,72686
2017-01-10T00:22:21.201Z,72687
2017-01-10T00:22:29.851Z,72688
2017-01-10T00:22:38.536Z,72686
2017-01-10T00:22:47.208Z,72685
2017-01-10T00:22:55.877Z,72686
2017-01-10T00:23:04.553Z,72686
2017-01-10T00:23:13.224Z,72685
2017-01-10T00:23:21.905Z,72686
2017-01-10T00:23:30.586Z,72688
2017-01-10T00:23:39.247Z,72685
2017-01-10T00:23:47.906Z,72688
2017-01-10T00:23:56.572Z,72688
2017-01-10T00:24:05.245Z,72684
2017-01-10T00:24:13.918Z,72689
2017-01-10T00:24:22.566Z,72682
2017-01-10T00:24:31.219Z,72684
2017-01-10T00:24:39.915Z,72684
2017-01-10T00:24:48.579Z,72689
2017-01-10T00:24:57.252Z,72686
2017-01-10T00:25:05.925Z,72685
2017-01-10T00:25:14.595Z,72691
2017-01-10T00:25:23.279Z,72687
2017-01-10T00:25:31.936Z,72683
2017-01-10T00:25:40.599Z,72685
2017-01-10T00:25:49.276Z,72687
2017-01-10T00:25:57.958Z,72687
2017-01-10T00:26:06.618Z,72683
2017-01-10T00:26:15.311Z,72683
2017-01-10T00:26:23.976Z,72685
2017-01-10T00:26:32.679Z,72682
2017-01-10T00:26:41.359Z,72685
2017-01-10T00:26:50.046Z,72681
2017-01-10T00:26:58.713Z,72684
2017-01-10T00:27:07.384Z,72680
2017-01-10T00:27:16.055Z,72681
2017-01-10T00:27:24.722Z,72680
2017-01-10T00:27:33.380Z,72683
2017-01-10T00:27:42.049Z,72678
2017-01-10T00:27:50.735Z,72678
2017-01-10T00:27:59.405Z,72683
2017-01-10T00:28:08.071Z,72679
2017-01-10T00:28:16.743Z,72678
2017-01-10T00:28:25.427Z,72677
2017-01-10T00:28:34.109Z,72677
2017-01-10T00:28:42.774Z,72677
2017-01-10T00:28:51.453Z,72679
2017-01-10T00:29:00.135Z,72677
2017-01-10T00:29:08.811Z,72673
2017-01-10T00:29:17.486Z,72677
2017-01-10T00:29:26.180Z,72679
2017-01-10T00:29:34.864Z,72677
2017-01-10T00:29:43.542Z,72677
2017-01-10T00:29:52.614Z,72677
2017-01-10T00:30:01.295Z,72676
2017-01-10T00:30:09.993Z,72675
2017-01-10T00:30:18.666Z,72674
2017-01-10T00:30:27.351Z,72676
2017-01-10T00:30:36.020Z,72674
2017-01-10T00:30:44.694Z,72676
2017-01-10T00:30:53.367Z,72676
2017-01-10T00:31:02.049Z,72677
2017-01-10T00:31:10.711Z,72676
2017-01-10T00:31:19.384Z,72676
2017-01-10T00:31:28.053Z,72676
2017-01-10T00:31:36.723Z,72675
2017-01-10T00:31:45.404Z,72673
2017-01-10T00:31:54.068Z,72669
2017-01-10T00:32:02.739Z,72673
2017-01-10T00:32:11.406Z,72674
2017-01-10T00:32:20.064Z,72676
2017-01-10T00:32:28.736Z,72672
2017-01-10T00:32:37.447Z,72673
2017-01-10T00:32:46.120Z,72672
2017-01-10T00:32:54.817Z,72669
2017-01-10T00:33:03.481Z,72672
2017-01-10T00:33:12.150Z,72669
2017-01-10T00:33:20.827Z,72669
2017-01-10T00:33:29.507Z,72669
2017-01-10T00:33:38.177Z,72671
2017-01-10T00:33:46.852Z,72672
2017-01-10T00:33:55.539Z,72671
2017-01-10T00:34:04.201Z,72673
2017-01-10T00:34:12.859Z,72672
2017-01-10T00:34:21.516Z,72671
2017-01-10T00:34:30.186Z,72667
2017-01-10T00:34:38.853Z,72673
2017-01-10T00:34:47.535Z,72669
2017-01-10T00:34:56.196Z,72668
2017-01-10T00:35:04.871Z,72670
2017-01-10T00:35:13.516Z,72668
2017-01-10T00:35:22.192Z,72668
2017-01-10T00:35:30.879Z,72669
2017-01-10T00:35:39.566Z,72670
2017-01-10T00:35:48.245Z,72665
2017-01-10T00:35:56.930Z,72669
2017-01-10T00:36:05.604Z,72669
2017-01-10T00:36:14.284Z,72665
2017-01-10T00:36:22.938Z,72668
2017-01-10T00:36:31.602Z,72668
2017-01-10T00:36:40.277Z,72666
2017-01-10T00:36:48.950Z,72665
2017-01-10T00:36:57.612Z,72658
2017-01-10T00:37:06.285Z,72664
2017-01-10T00:37:14.925Z,72665
2017-01-10T00:37:23.588Z,72668
2017-01-10T00:37:32.267Z,72668
2017-01-10T00:37:40.937Z,72669
2017-01-10T00:37:49.599Z,72664
2017-01-10T00:37:58.263Z,72669
2017-01-10T00:38:06.918Z,72668
2017-01-10T00:38:15.594Z,72665
2017-01-10T00:38:24.269Z,72665
2017-01-10T00:38:32.950Z,72660
2017-01-10T00:38:41.620Z,72657
2017-01-10T00:38:50.303Z,72659
2017-01-10T00:38:58.989Z,72666
2017-01-10T00:39:07.670Z,72663
2017-01-10T00:39:16.328Z,72664
2017-01-10T00:39:24.996Z,72661
2017-01-10T00:39:33.670Z,72658
2017-01-10T00:39:42.327Z,72661
2017-01-10T00:39:50.993Z,72658
2017-01-10T00:39:59.679Z,72658
2017-01-10T00:40:08.376Z,72656
2017-01-10T00:40:17.058Z,72656
2017-01-10T00:40:25.729Z,72659
2017-01-10T00:40:34.382Z,72658
2017-01-10T00:40:43.057Z,72656
2017-01-10T00:40:51.731Z,72659
2017-01-10T00:41:00.402Z,72660
2017-01-10T00:41:09.071Z,72660
2017-01-10T00:41:17.755Z,72659
2017-01-10T00:41:26.427Z,72663
2017-01-10T00:41:35.111Z,72659
2017-01-10T00:41:43.798Z,72659
2017-01-10T00:41:52.464Z,72659
2017-01-10T00:42:01.162Z,72659
2017-01-10T00:42:09.852Z,72661
2017-01-10T00:42:18.531Z,72659
2017-01-10T00:42:27.230Z,72656
2017-01-10T00:42:35.899Z,72659
2017-01-10T00:42:44.563Z,72659
2017-01-10T00:42:53.227Z,72660
2017-01-10T00:43:01.897Z,72659
2017-01-10T00:43:10.558Z,72661
2017-01-10T00:43:19.234Z,72658
2017-01-10T00:43:27.899Z,72661
2017-01-10T00:43:36.575Z,72661
2017-01-10T00:43:45.231Z,72660
2017-01-10T00:43:53.891Z,72658
2017-01-10T00:44:02.583Z,72659
2017-01-10T00:44:11.272Z,72660
2017-01-10T00:44:19.949Z,72659
2017-01-10T00:44:28.637Z,72657
2017-01-10T00:44:37.315Z,72658
2017-01-10T00:44:45.971Z,72661
2017-01-10T00:44:54.632Z,72661
2017-01-10T00:45:03.301Z,72664
2017-01-10T00:45:11.981Z,72664
2017-01-10T00:45:20.648Z,72663
2017-01-10T00:45:29.343Z,72658
2017-01-10T00:45:37.996Z,72664
2017-01-10T00:45:46.661Z,72658
2017-01-10T00:45:55.331Z,72668
2017-01-10T00:46:04.000Z,72660
2017-01-10T00:46:12.674Z,72662
2017-01-10T00:46:21.354Z,72665
2017-01-10T00:46:30.024Z,72666
2017-01-10T00:46:38.702Z,72664
2017-01-10T00:46:47.399Z,72666
2017-01-10T00:46:56.050Z,72664
2017-01-10T00:47:04.720Z,72660
2017-01-10T00:47:13.404Z,72662
2017-01-10T00:47:22.073Z,72657
2017-01-10T00:47:30.764Z,72663
2017-01-10T00:47:39.430Z,72666
2017-01-10T00:47:48.107Z,72663
2017-01-10T00:47:56.786Z,72664
2017-01-10T00:48:05.464Z,72663
2017-01-10T00:48:14.133Z,72660
2017-01-10T00:48:22.844Z,72659
2017-01-10T00:48:31.518Z,72659
2017-01-10T00:48:40.219Z,72659
2017-01-10T00:48:48.895Z,72661
2017-01-10T00:48:57.575Z,72658
2017-01-10T00:49:06.241Z,72660
2017-01-10T00:49:14.922Z,72659
2017-01-10T00:49:23.601Z,72660
2017-01-10T00:49:32.282Z,72660
2017-01-10T00:49:40.948Z,72657
2017-01-10T00:49:49.617Z,72660
2017-01-10T00:49:58.287Z,72659
2017-01-10T00:50:06.969Z,72659
2017-01-10T00:50:15.667Z,72657
2017-01-10T00:50:24.333Z,72658
2017-01-10T00:50:33.009Z,72662
2017-01-10T00:50:41.668Z,72658
2017-01-10T00:50:50.332Z,72659
2017-01-10T00:50:58.983Z,72656
2017-01-10T00:51:07.651Z,72658
2017-01-10T00:51:16.315Z,72656
2017-01-10T00:51:24.982Z,72657
2017-01-10T00:51:33.635Z,72657
2017-01-10T00:51:42.280Z,72654
2017-01-10T00:51:50.942Z,72661
2017-01-10T00:51:59.607Z,72658
2017-01-10T00:52:08.273Z,72653
2017-01-10T00:52:16.980Z,72653
2017-01-10T00:52:25.652Z,72652
2017-01-10T00:52:34.343Z,72654
2017-01-10T00:52:43.028Z,72652
2017-01-10T00:52:51.706Z,72657
2017-01-10T00:53:00.385Z,72653
2017-01-10T00:53:09.067Z,72657
2017-01-10T00:53:17.739Z,72654
2017-01-10T00:53:26.416Z,72656
2017-01-10T00:53:35.055Z,72653
2017-01-10T00:53:43.728Z,72652
2017-01-10T00:53:52.386Z,72654
2017-01-10T00:54:01.032Z,72652
2017-01-10T00:54:09.695Z,72654
2017-01-10T00:54:18.354Z,72655
2017-01-10T00:54:27.018Z,72655
2017-01-10T00:54:35.673Z,72655
2017-01-10T00:54:44.337Z,72657
2017-01-10T00:54:53.009Z,72659
2017-01-10T00:55:01.696Z,72659
2017-01-10T00:55:10.374Z,72657
2017-01-10T00:55:19.042Z,72655
2017-01-10T00:55:27.729Z,72654
2017-01-10T00:55:36.418Z,72653
2017-01-10T00:55:45.097Z,72652
2017-01-10T00:55:53.788Z,72658
2017-01-10T00:56:02.472Z,72655
2017-01-10T00:56:11.145Z,72655
2017-01-10T00:56:19.827Z,72655
2017-01-10T00:56:28.495Z,72659
2017-01-10T00:56:37.205Z,72658
2017-01-10T00:56:45.868Z,72656
2017-01-10T00:56:54.539Z,72660
2017-01-10T00:57:03.192Z,72657
2017-01-10T00:57:11.852Z,72655
2017-01-10T00:57:20.535Z,72656
2017-01-10T00:57:29.202Z,72656
2017-01-10T00:57:37.883Z,72657
2017-01-10T00:57:46.554Z,72659
2017-01-10T00:57:55.210Z,72660
2017-01-10T00:58:03.885Z,72661
2017-01-10T00:58:12.545Z,72655
2017-01-10T00:58:21.218Z,72657
2017-01-10T00:58:29.890Z,72659
2017-01-10T00:58:38.570Z,72658
2017-01-10T00:58:47.241Z,72659
2017-01-10T00:58:55.922Z,72659
2017-01-10T00:59:04.611Z,72657
2017-01-10T00:59:13.271Z,72655
2017-01-10T00:59:21.966Z,72657
2017-01-10T00:59:30.623Z,72658
2017-01-10T00:59:39.306Z,72660
2017-01-10T00:59:47.959Z,72660
2017-01-10T00:59:56.641Z,72661
2017-01-10T01:00:05.325Z,72660
2017-01-10T01:00:13.984Z,72660
2017-01-10T01:00:22.656Z,72658
2017-01-10T01:00:31.315Z,72662
2017-01-10T01:00:40.360Z,72658
2017-01-10T01:00:49.063Z,72654
2017-01-10T01:00:57.731Z,72657
2017-01-10T01:01:06.396Z,72660
2017-01-10T01:01:15.055Z,72657
2017-01-10T01:01:23.736Z,72658
2017-01-10T01:01:32.391Z,72656
2017-01-10T01:01:41.064Z,72655
2017-01-10T01:01:49.785Z,72657
2017-01-10T01:01:58.464Z,72655
2017-01-10T01:02:07.137Z,72654
2017-01-10T01:02:15.790Z,72653
2017-01-10T01:02:24.449Z,72656
2017-01-10T01:02:33.107Z,72658
2017-01-10T01:02:41.790Z,72658
2017-01-10T01:02:50.448Z,72660
2017-01-10T01:02:59.136Z,72657
2017-01-10T01:03:07.831Z,72659
2017-01-10T01:03:16.502Z,72655
2017-01-10T01:03:25.167Z,72659
2017-01-10T01:03:33.830Z,72657
2017-01-10T01:03:42.512Z,72657
2017-01-10T01:03:51.562Z,72658
2017-01-10T01:04:00.238Z,72657
2017-01-10T01:04:08.905Z,72656
2017-01-10T01:04:17.585Z,72656
2017-01-10T01:04:26.269Z,72657
2017-01-10T01:04:34.926Z,72656
2017-01-10T01:04:43.599Z,72656
2017-01-10T01:04:52.281Z,72654
2017-01-10T01:05:00.941Z,72654
2017-01-10T01:05:09.610Z,72654
2017-01-10T01:05:18.268Z,72657
2017-01-10T01:05:26.938Z,72658
2017-01-10T01:05:35.596Z,72656
2017-01-10T01:05:44.283Z,72656
2017-01-10T01:05:52.943Z,72659
2017-01-10T01:06:01.605Z,72655
2017-01-10T01:06:10.292Z,72650
2017-01-10T01:06:18.970Z,72648
2017-01-10T01:06:27.636Z,72650
2017-01-10T01:06:36.329Z,72657
2017-01-10T01:06:45.014Z,72656
2017-01-10T01:06:53.678Z,72657
2017-01-10T01:07:02.347Z,72662
2017-01-10T01:07:11.030Z,72654
2017-01-10T01:07:19.695Z,72656
2017-01-10T01:07:28.365Z,72653
2017-01-10T01:07:37.061Z,72655
2017-01-10T01:07:45.718Z,72656
2017-01-10T01:07:54.415Z,72652
2017-01-10T01:08:03.079Z,72652
2017-01-10T01:08:11.754Z,72656
2017-01-10T01:08:20.422Z,72654
2017-01-10T01:08:29.080Z,72656
2017-01-10T01:08:37.745Z,72656
2017-01-10T01:08:46.443Z,72659
2017-01-10T01:08:55.107Z,72660
2017-01-10T01:09:03.772Z,72654
2017-01-10T01:09:12.445Z,72646
2017-01-10T01:09:21.109Z,72650
2017-01-10T01:09:29.775Z,72650
2017-01-10T01:09:38.465Z,72649
2017-01-10T01:09:47.139Z,72654
2017-01-10T01:09:55.817Z,72658
2017-01-10T01:10:04.491Z,72657
2017-01-10T01:10:13.176Z,72655
2017-01-10T01:10:21.849Z,72649
2017-01-10T01:10:30.513Z,72653
2017-01-10T01:10:39.175Z,72648
2017-01-10T01:10:47.840Z,72650
2017-01-10T01:10:56.505Z,72654
2017-01-10T01:11:05.168Z,72653
2017-01-10T01:11:13.823Z,72650
2017-01-10T01:11:22.497Z,72658
2017-01-10T01:11:31.164Z,72658
2017-01-10T01:11:39.854Z,72658
2017-01-10T01:11:48.566Z,72657
2017-01-10T01:11:57.235Z,72654
2017-01-10T01:12:05.924Z,72651
2017-01-10T01:12:14.579Z,72654
2017-01-10T01:12:23.252Z,72652
2017-01-10T01:12:31.932Z,72653
2017-01-10T01:12:40.606Z,72649
2017-01-10T01:12:49.278Z,72652
2017-01-10T01:12:57.938Z,72649
2017-01-10T01:13:06.615Z,72647
2017-01-10T01:13:15.281Z,72651
2017-01-10T01:13:23.950Z,72654
2017-01-10T01:13:32.625Z,72649
2017-01-10T01:13:41.314Z,72652
2017-01-10T01:13:49.988Z,72654
2017-01-10T01:13:58.668Z,72655
2017-01-10T01:14:07.705Z,72650
2017-01-10T01:14:16.372Z,72646
2017-01-10T01:14:25.064Z,72649
2017-01-10T01:14:33.736Z,72646
2017-01-10T01:14:42.401Z,72646
2017-01-10T01:14:51.046Z,72648
2017-01-10T01:14:59.723Z,72648
2017-01-10T01:15:08.399Z,72648
2017-01-10T01:15:17.065Z,72647
2017-01-10T01:15:25.749Z,72648
2017-01-10T01:15:34.440Z,72647
2017-01-10T01:15:43.096Z,72647
2017-01-10T01:15:51.762Z,72647
2017-01-10T01:16:00.446Z,72646
2017-01-10T01:16:09.133Z,72645
2017-01-10T01:16:17.796Z,72646
2017-01-10T01:16:26.462Z,72647
2017-01-10T01:16:35.148Z,72640
2017-01-10T01:16:43.814Z,72650
2017-01-10T01:16:52.473Z,72645
2017-01-10T01:17:01.159Z,72649
2017-01-10T01:17:10.198Z,72650
2017-01-10T01:17:18.871Z,72647
2017-01-10T01:17:27.542Z,72647
2017-01-10T01:17:36.215Z,72646
2017-01-10T01:17:44.901Z,72644
2017-01-10T01:17:53.614Z,72645
2017-01-10T01:18:02.296Z,72645
2017-01-10T01:18:11.339Z,72647
2017-01-10T01:18:20.013Z,72647
2017-01-10T01:18:28.692Z,72645
2017-01-10T01:18:37.353Z,72645
2017-01-10T01:18:46.041Z,72646
2017-01-10T01:18:54.711Z,72646
2017-01-10T01:19:03.377Z,72645
2017-01-10T01:19:12.043Z,72645
2017-01-10T01:19:20.734Z,72647
2017-01-10T01:19:29.404Z,72648
2017-01-10T01:19:38.075Z,72645
2017-01-10T01:19:46.729Z,72641
2017-01-10T01:19:55.398Z,72645
2017-01-10T01:20:04.089Z,72642
2017-01-10T01:20:12.759Z,72644
2017-01-10T01:20:21.422Z,72641
2017-01-10T01:20:30.473Z,72646
2017-01-10T01:20:39.131Z,72646
2017-01-10T01:20:47.812Z,72645
2017-01-10T01:20:56.485Z,72651
2017-01-10T01:21:05.143Z,72651
2017-01-10T01:21:13.796Z,72647
2017-01-10T01:21:22.458Z,72646
2017-01-10T01:21:31.138Z,72646
2017-01-10T01:21:39.807Z,72645
2017-01-10T01:21:48.471Z,72645
2017-01-10T01:21:57.159Z,72644
2017-01-10T01:22:05.860Z,72647
2017-01-10T01:22:14.551Z,72648
2017-01-10T01:22:23.226Z,72645
2017-01-10T01:22:31.893Z,72647
2017-01-10T01:22:40.562Z,72648
2017-01-10T01:22:49.238Z,72648
2017-01-10T01:22:57.917Z,72646
2017-01-10T01:23:06.593Z,72646
2017-01-10T01:23:15.274Z,72648
2017-01-10T01:23:23.940Z,72647
2017-01-10T01:23:32.616Z,72644
2017-01-10T01:23:41.283Z,72647
2017-01-10T01:23:49.958Z,72646
2017-01-10T01:23:58.642Z,72643
2017-01-10T01:24:07.311Z,72645
2017-01-10T01:24:15.996Z,72645
2017-01-10T01:24:24.665Z,72642
2017-01-10T01:24:33.314Z,72650
2017-01-10T01:24:42.021Z,72646
2017-01-10T01:24:50.692Z,72645
2017-01-10T01:24:59.352Z,72644
2017-01-10T01:25:08.026Z,72642
2017-01-10T01:25:16.713Z,72647
2017-01-10T01:25:25.365Z,72646
2017-01-10T01:25:34.041Z,72646
2017-01-10T01:25:42.752Z,72647
2017-01-10T01:25:51.416Z,72646
2017-01-10T01:26:00.095Z,72646
2017-01-10T01:26:08.769Z,72645
2017-01-10T01:26:17.431Z,72642
2017-01-10T01:26:26.093Z,72644
2017-01-10T01:26:34.773Z,72644
2017-01-10T01:26:43.448Z,72644
2017-01-10T01:26:52.125Z,72647
2017-01-10T01:27:00.791Z,72643
2017-01-10T01:27:09.443Z,72646
2017-01-10T01:27:18.101Z,72647
2017-01-10T01:27:26.777Z,72649
2017-01-10T01:27:35.448Z,72647
2017-01-10T01:27:44.096Z,72644
2017-01-10T01:27:53.119Z,72642
2017-01-10T01:28:01.791Z,72646
2017-01-10T01:28:10.455Z,72646
2017-01-10T01:28:19.122Z,72646
2017-01-10T01:28:27.781Z,72648
2017-01-10T01:28:36.458Z,72651
2017-01-10T01:28:45.108Z,72650
2017-01-10T01:28:53.774Z,72647
2017-01-10T01:29:02.428Z,72648
2017-01-10T01:29:11.079Z,72648
2017-01-10T01:29:19.750Z,72648
2017-01-10T01:29:28.420Z,72649
2017-01-10T01:29:37.096Z,72647
2017-01-10T01:29:45.775Z,72649
2017-01-10T01:29:54.442Z,72646
2017-01-10T01:30:03.116Z,72642
2017-01-10T01:30:11.793Z,72642
2017-01-10T01:30:20.474Z,72652
2017-01-10T01:30:29.137Z,72651
2017-01-10T01:30:37.796Z,72651
2017-01-10T01:30:46.509Z,72647
2017-01-10T01:30:55.165Z,72646
2017-01-10T01:31:03.827Z,72648
2017-01-10T01:31:12.491Z,72646
2017-01-10T01:31:21.177Z,72642
2017-01-10T01:31:29.853Z,72639
2017-01-10T01:31:38.528Z,72641
2017-01-10T01:31:47.193Z,72649
2017-01-10T01:31:55.872Z,72653
2017-01-10T01:32:04.544Z,72649
2017-01-10T01:32:13.230Z,72649
2017-01-10T01:32:21.887Z,72638
2017-01-10T01:32:30.540Z,72646
2017-01-10T01:32:39.209Z,72645
2017-01-10T01:32:47.853Z,72643
2017-01-10T01:32:56.896Z,72650
2017-01-10T01:33:05.594Z,72646
2017-01-10T01:33:14.267Z,72648
2017-01-10T01:33:22.947Z,72643
2017-01-10T01:33:31.624Z,72644
2017-01-10T01:33:40.290Z,72647
2017-01-10T01:33:48.964Z,72634
2017-01-10T01:33:57.644Z,72635
2017-01-10T01:34:06.321Z,72637
2017-01-10T01:34:14.977Z,72646
2017-01-10T01:34:23.636Z,72651
2017-01-10T01:34:32.309Z,72647
2017-01-10T01:34:41.001Z,72645
2017-01-10T01:34:49.663Z,72639
2017-01-10T01:34:58.342Z,72639
2017-01-10T01:35:07.020Z,72639
2017-01-10T01:35:15.702Z,72639
2017-01-10T01:35:24.372Z,72637
2017-01-10T01:35:33.033Z,72639
2017-01-10T01:35:41.720Z,72641
2017-01-10T01:35:50.388Z,72636
2017-01-10T01:35:59.067Z,72639
2017-01-10T01:36:07.776Z,72634
2017-01-10T01:36:16.822Z,72635
2017-01-10T01:36:25.500Z,72633
2017-01-10T01:36:34.545Z,72632
2017-01-10T01:36:43.204Z,72635
2017-01-10T01:36:51.897Z,72633
2017-01-10T01:37:00.571Z,72633
2017-01-10T01:37:09.235Z,72636
2017-01-10T01:37:17.911Z,72637
2017-01-10T01:37:26.601Z,72635
2017-01-10T01:37:35.284Z,72634
2017-01-10T01:37:43.934Z,72636
2017-01-10T01:37:52.595Z,72634
2017-01-10T01:38:01.280Z,72632
2017-01-10T01:38:09.951Z,72635
2017-01-10T01:38:18.614Z,72635
2017-01-10T01:38:27.302Z,72635
2017-01-10T01:38:35.977Z,72641
2017-01-10T01:38:44.652Z,72642
2017-01-10T01:38:53.337Z,72641
2017-01-10T01:39:02.011Z,72636
2017-01-10T01:39:10.688Z,72632
2017-01-10T01:39:19.364Z,72632
2017-01-10T01:39:28.047Z,72631
2017-01-10T01:39:36.731Z,72630
2017-01-10T01:39:45.402Z,72632
2017-01-10T01:39:54.074Z,72630
2017-01-10T01:40:02.759Z,72633
2017-01-10T01:40:11.424Z,72633
2017-01-10T01:40:20.100Z,72632
2017-01-10T01:40:28.773Z,72635
2017-01-10T01:40:37.439Z,72632
2017-01-10T01:40:46.094Z,72630
2017-01-10T01:40:54.775Z,72624
2017-01-10T01:41:03.439Z,72627
2017-01-10T01:41:12.105Z,72628
2017-01-10T01:41:20.759Z,72629
2017-01-10T01:41:29.443Z,72630
2017-01-10T01:41:38.099Z,72630
2017-01-10T01:41:46.785Z,72632
2017-01-10T01:41:55.480Z,72631
2017-01-10T01:42:04.154Z,72633
2017-01-10T01:42:12.825Z,72628
2017-01-10T01:42:21.889Z,72625
2017-01-10T01:42:30.545Z,72626
2017-01-10T01:42:39.222Z,72627
2017-01-10T01:42:47.884Z,72634
2017-01-10T01:42:56.548Z,72632
2017-01-10T01:43:05.201Z,72633
2017-01-10T01:43:13.871Z,72634
2017-01-10T01:43:22.554Z,72630
2017-01-10T01:43:31.606Z,72629
2017-01-10T01:43:40.269Z,72628
2017-01-10T01:43:48.920Z,72631
2017-01-10T01:43:57.630Z,72627
2017-01-10T01:44:06.308Z,72625
2017-01-10T01:44:15.001Z,72623
2017-01-10T01:44:23.678Z,72624
2017-01-10T01:44:32.360Z,72626
2017-01-10T01:44:41.031Z,72623
2017-01-10T01:44:49.719Z,72624
2017-01-10T01:44:58.388Z,72623
2017-01-10T01:45:07.065Z,72621
2017-01-10T01:45:15.748Z,72626
2017-01-10T01:45:24.403Z,72622
2017-01-10T01:45:33.062Z,72621
2017-01-10T01:45:42.117Z,72626
2017-01-10T01:45:50.803Z,72624
2017-01-10T01:45:59.486Z,72623
2017-01-10T01:46:08.152Z,72622
2017-01-10T01:46:16.814Z,72628
2017-01-10T01:46:25.478Z,72626
2017-01-10T01:46:34.132Z,72622
2017-01-10T01:46:42.801Z,72617
2017-01-10T01:46:51.489Z,72622
2017-01-10T01:47:00.156Z,72627
2017-01-10T01:47:08.812Z,72629
2017-01-10T01:47:17.483Z,72630
2017-01-10T01:47:26.141Z,72633
2017-01-10T01:47:34.812Z,72638
2017-01-10T01:47:43.489Z,72625
2017-01-10T01:47:52.144Z,72624
2017-01-10T01:48:00.818Z,72629
2017-01-10T01:48:09.508Z,72627
2017-01-10T01:48:18.198Z,72631
2017-01-10T01:48:26.878Z,72634
2017-01-10T01:48:35.530Z,72632
2017-01-10T01:48:44.206Z,72628
2017-01-10T01:48:52.869Z,72626
2017-01-10T01:49:01.551Z,72624
2017-01-10T01:49:10.236Z,72621
2017-01-10T01:49:18.911Z,72625
2017-01-10T01:49:27.578Z,72627
2017-01-10T01:49:36.245Z,72625
2017-01-10T01:49:44.927Z,72621
2017-01-10T01:49:53.605Z,72620
2017-01-10T01:50:02.269Z,72609
2017-01-10T01:50:10.963Z,72618
2017-01-10T01:50:19.637Z,72615
2017-01-10T01:50:28.302Z,72616
2017-01-10T01:50:36.978Z,72616
2017-01-10T01:50:45.656Z,72616
2017-01-10T01:50:54.342Z,72610
2017-01-10T01:51:03.006Z,72612
2017-01-10T01:51:11.705Z,72615
2017-01-10T01:51:20.381Z,72614
2017-01-10T01:51:29.054Z,72624
2017-01-10T01:51:37.736Z,72623
2017-01-10T01:51:46.390Z,72623